Zim Panama — VSWW5 — position and weather

sailwx.info

Track history (hours):
 
Tides and Currents Weather Stations Pressure Air Temp Water Temp Dewpoint Dewpoint Depression Visibility Wind Speed Wind Dir Waves Ship Positions

Zim Panama

Last reported at 2014-Dec-16 04:30 UTC. Time now 2014-Dec-22 03:31 UTC.
Position N 40°25' W 069°29'.

Length 294.12 m; beam 32.2 m; draft 9.45 m.

Type: Ship (hazmat cat C). MMSI: 235474000.

Date/timePositionNaut miles runAvg speedWind from/ knotsBaromVisibWave heightAir tempDewpointWater temp
2014-Dec-16 04:30N 40°25' W 069°29'1717.9
2014-Dec-16 03:32N 40°24' W 069°52'1818.2
2014-Dec-16 02:33N 40°24' W 070°16'1818.4
2014-Dec-16 01:33N 40°24' W 070°39'2421.0
2014-Dec-16 00:26N 40°24' W 071°10'1716.0
2014-Dec-15 23:22N 40°24' W 071°33'1518.2
2014-Dec-15 22:34N 40°23' W 071°52'1918.8
2014-Dec-15 21:33N 40°23' W 072°17'1817.4
2014-Dec-15 20:33N 40°23' W 072°40'1918.7
2014-Dec-15 19:33N 40°23' W 073°04'1818.2
2014-Dec-15 18:33N 40°24' W 073°28'1010.2
2014-Dec-15 17:33N 40°26' W 073°41'10 9.6
2014-Dec-15 16:33N 40°29' W 073°53'1111.4
2014-Dec-15 15:33N 40°37' W 074°03'5 5.0
2014-Dec-15 14:33N 40°40' W 074°08'1 0.9
2014-Dec-15 13:33N 40°41' W 074°09'0 0.0
2014-Dec-15 12:30N 40°41' W 074°09'0 0.0
2014-Dec-15 11:18N 40°41' W 074°09'0 0.0
2014-Dec-15 08:15N 40°41' W 074°09'0 0.0
2014-Dec-15 07:27N 40°41' W 074°09'0 0.0
2014-Dec-15 06:27N 40°41' W 074°09'0 0.0
2014-Dec-15 05:09N 40°41' W 074°09'0 0.0
2014-Dec-15 02:27N 40°41' W 074°09'0 0.0
2014-Dec-15 01:27N 40°41' W 074°09'0 0.0
2014-Dec-15 00:30N 40°41' W 074°09'0 0.0
2014-Dec-14 23:33N 40°41' W 074°09'0 0.0
2014-Dec-14 22:30N 40°41' W 074°09'0 0.0
2014-Dec-14 21:21N 40°41' W 074°09'0 0.0
2014-Dec-14 19:27N 40°41' W 074°09'0 0.0
2014-Dec-14 18:30N 40°41' W 074°09'0 0.0
2014-Dec-14 17:30N 40°41' W 074°09'0 0.0
2014-Dec-14 16:24N 40°41' W 074°09'0 0.0
2014-Dec-14 15:27N 40°41' W 074°09'0 0.0
2014-Dec-14 13:21N 40°41' W 074°09'0 0.0
2014-Dec-14 12:33N 40°41' W 074°09'0 0.0
2014-Dec-14 11:33N 40°41' W 074°09'0 0.0
2014-Dec-14 10:05N 40°41' W 074°09'0 0.0
2014-Dec-14 09:17N 40°41' W 074°09'1 0.7
2014-Dec-14 07:33N 40°40' W 074°08'4 4.4
2014-Dec-14 06:33N 40°38' W 074°03'1211.9
2014-Dec-14 05:32N 40°29' W 073°53'8 6.7
2014-Dec-14 04:23N 40°22' W 073°47'30 9.8
2014-Dec-14 01:18N 39°52' W 073°43'1114.3
2014-Dec-14 00:32N 39°41' W 073°43'1614.3
2014-Dec-13 23:24N 39°26' W 073°49'141 7.3
2014-Dec-13 04:13N 38°01' W 076°12'6717.0
2014-Dec-13 00:16N 39°07' W 076°24'810.8
2014-Dec-12 23:33N 39°12' W 076°31'3 3.2
2014-Dec-12 22:31N 39°15' W 076°33'0 0.0
2014-Dec-12 21:32N 39°15' W 076°33'0 0.0
2014-Dec-12 20:32N 39°15' W 076°33'0 0.0
2014-Dec-12 19:32N 39°15' W 076°33'0 0.0
2014-Dec-12 18:32N 39°15' W 076°33'0 0.0
2014-Dec-12 17:32N 39°15' W 076°33'0 0.0
2014-Dec-12 16:32N 39°15' W 076°33'0 0.0
2014-Dec-12 15:32N 39°15' W 076°33'0 0.0
2014-Dec-12 14:32N 39°15' W 076°33'0 0.0
2014-Dec-12 13:32N 39°15' W 076°33'0 0.0
2014-Dec-12 12:32N 39°15' W 076°33'0 0.0
2014-Dec-12 11:32N 39°15' W 076°33'1 0.6
2014-Dec-12 10:33N 39°15' W 076°32'8 8.2
2014-Dec-12 09:33N 39°09' W 076°25'1313.4
2014-Dec-12 08:34N 38°56' W 076°23'5015.3
2014-Dec-12 05:17N 38°06' W 076°13'1416.5
2014-Dec-12 04:26N 37°53' W 076°09'  
Track history (hours):
 
Tides and Currents Weather Stations Pressure Air Temp Water Temp Dewpoint Dewpoint Depression Visibility Wind Speed Wind Dir Waves Ship Positions

Zim Panama

Last reported at 2014-Dec-16 04:30 UTC. Time now 2014-Dec-22 03:31 UTC.
Position N 40°25' W 069°29'.

Length 294.12 m; beam 32.2 m; draft 9.45 m.

Type: Ship (hazmat cat C). MMSI: 235474000.

Date/timePositionNaut miles runAvg speedWind from/ knotsBaromVisibWave heightAir tempDewpointWater temp
2014-Dec-16 04:30N 40°25' W 069°29'1717.9
2014-Dec-16 03:32N 40°24' W 069°52'1818.2
2014-Dec-16 02:33N 40°24' W 070°16'1818.4
2014-Dec-16 01:33N 40°24' W 070°39'2421.0
2014-Dec-16 00:26N 40°24' W 071°10'1716.0
2014-Dec-15 23:22N 40°24' W 071°33'1518.2
2014-Dec-15 22:34N 40°23' W 071°52'1918.8
2014-Dec-15 21:33N 40°23' W 072°17'1817.4
2014-Dec-15 20:33N 40°23' W 072°40'1918.7
2014-Dec-15 19:33N 40°23' W 073°04'1818.2
2014-Dec-15 18:33N 40°24' W 073°28'1010.2
2014-Dec-15 17:33N 40°26' W 073°41'10 9.6
2014-Dec-15 16:33N 40°29' W 073°53'1111.4
2014-Dec-15 15:33N 40°37' W 074°03'5 5.0
2014-Dec-15 14:33N 40°40' W 074°08'1 0.9
2014-Dec-15 13:33N 40°41' W 074°09'0 0.0
2014-Dec-15 12:30N 40°41' W 074°09'0 0.0
2014-Dec-15 11:18N 40°41' W 074°09'0 0.0
2014-Dec-15 08:15N 40°41' W 074°09'0 0.0
2014-Dec-15 07:27N 40°41' W 074°09'0 0.0
2014-Dec-15 06:27N 40°41' W 074°09'0 0.0
2014-Dec-15 05:09N 40°41' W 074°09'0 0.0
2014-Dec-15 02:27N 40°41' W 074°09'0 0.0
2014-Dec-15 01:27N 40°41' W 074°09'0 0.0
2014-Dec-15 00:30N 40°41' W 074°09'0 0.0
2014-Dec-14 23:33N 40°41' W 074°09'0 0.0
2014-Dec-14 22:30N 40°41' W 074°09'0 0.0
2014-Dec-14 21:21N 40°41' W 074°09'0 0.0
2014-Dec-14 19:27N 40°41' W 074°09'0 0.0
2014-Dec-14 18:30N 40°41' W 074°09'0 0.0
2014-Dec-14 17:30N 40°41' W 074°09'0 0.0
2014-Dec-14 16:24N 40°41' W 074°09'0 0.0
2014-Dec-14 15:27N 40°41' W 074°09'0 0.0
2014-Dec-14 13:21N 40°41' W 074°09'0 0.0
2014-Dec-14 12:33N 40°41' W 074°09'0 0.0
2014-Dec-14 11:33N 40°41' W 074°09'0 0.0
2014-Dec-14 10:05N 40°41' W 074°09'0 0.0
2014-Dec-14 09:17N 40°41' W 074°09'1 0.7
2014-Dec-14 07:33N 40°40' W 074°08'4 4.4
2014-Dec-14 06:33N 40°38' W 074°03'1211.9
2014-Dec-14 05:32N 40°29' W 073°53'8 6.7
2014-Dec-14 04:23N 40°22' W 073°47'30 9.8
2014-Dec-14 01:18N 39°52' W 073°43'1114.3
2014-Dec-14 00:32N 39°41' W 073°43'1614.3
2014-Dec-13 23:24N 39°26' W 073°49'141 7.3
2014-Dec-13 04:13N 38°01' W 076°12'6717.0
2014-Dec-13 00:16N 39°07' W 076°24'810.8
2014-Dec-12 23:33N 39°12' W 076°31'3 3.2
2014-Dec-12 22:31N 39°15' W 076°33'0 0.0
2014-Dec-12 21:32N 39°15' W 076°33'0 0.0
2014-Dec-12 20:32N 39°15' W 076°33'0 0.0
2014-Dec-12 19:32N 39°15' W 076°33'0 0.0
2014-Dec-12 18:32N 39°15' W 076°33'0 0.0
2014-Dec-12 17:32N 39°15' W 076°33'0 0.0
2014-Dec-12 16:32N 39°15' W 076°33'0 0.0
2014-Dec-12 15:32N 39°15' W 076°33'0 0.0
2014-Dec-12 14:32N 39°15' W 076°33'0 0.0
2014-Dec-12 13:32N 39°15' W 076°33'0 0.0
2014-Dec-12 12:32N 39°15' W 076°33'0 0.0
2014-Dec-12 11:32N 39°15' W 076°33'1 0.6
2014-Dec-12 10:33N 39°15' W 076°32'8 8.2
2014-Dec-12 09:33N 39°09' W 076°25'1313.4
2014-Dec-12 08:34N 38°56' W 076°23'5015.3
2014-Dec-12 05:17N 38°06' W 076°13'1416.5
2014-Dec-12 04:26N 37°53' W 076°09'  

Dump ship's entire track history